Donaldson, Kentucky
Current Conditions -  °F | °C
As of 9:58 PM on Sunday 23 Nov 2014 (Local Time) from KHOP Reporting Station
Drizzle Drizzle  
Wind Chill: 60°   Ceiling: 1000
Heat Index: 60°   Visibility: 7mi
Dew Point: 60°   Wind: 21mph
Humidity: 100%   Direction: 220°SW
Pressure: 29.43"   Gusts: 31mph
Location:  36.8031°N, 87.8159°W
Report Text: KHOP 240358Z AUTO 22018G27KT 7SM R23/5500FT -DZ OVC010 16/16 A2943 RMK AO2 PK WND 23027/45 DZB0327E0344 SLP966 P0000 T01560156
Loading
Personal Weather Stations






























Interactive Weather Map New forecast layout! Learn more

10-Day Weather Forecast

Advertisements
Track Severe Weather on mobile